This is the latest recevied weather packets stored in our database for station/object VK2BNC-13. If no packets are shown the sender has not sent any weather packets the latest 10 day(s).
| Time | Temp. | Humidity | Pressure | Rain* | Wind** | Luminosity | Snow |
|---|---|---|---|---|---|---|---|
| 1777633997 | 15.56° C | 89% | - | 0 mm | - | - | - |
| 1777633097 | 15.56° C | 88% | - | 0 mm | - | - | - |
| 1777632197 | 15.56° C | 88% | - | 0 mm | - | - | - |
| 1777631296 | 15.56° C | 87% | - | 0 mm | - | - | - |
| 1777630396 | 16.11° C | 86% | - | 0 mm | - | - | - |
| 1777629496 | 16.11° C | 86% | - | 0 mm | - | - | - |
| 1777628594 | 16.11° C | 85% | - | 0 mm | - | - | - |
| 1777627693 | 16.67° C | 81% | - | 0 mm | - | - | - |
| 1777626790 | 17.22° C | 81% | - | 0 mm | - | - | - |
| 1777625888 | 18.33° C | 78% | - | 0 mm | - | - | - |
| 1777624988 | 18.89° C | 76% | - | 0 mm | - | - | - |
| 1777624086 | 19.44° C | 75% | - | 0 mm | - | - | - |
| 1777623185 | 19.44° C | 74% | - | 0 mm | - | - | - |
| 1777622280 | 20° C | 73% | - | 0 mm | - | - | - |
| 1777621377 | 20.56° C | 72% | - | 0 mm | - | - | - |
| 1777620476 | 21.11° C | 71% | - | 0 mm | - | - | - |
| 1777619576 | 21.67° C | 69% | - | 0 mm | - | - | - |
| 1777618673 | 22.78° C | 66% | - | 0 mm | - | - | - |
| 1777617773 | 23.33° C | 64% | - | 0 mm | - | - | - |
| 1777616873 | 24.44° C | 62% | - | 0 mm | - | - | - |
| 1777615970 | 23.89° C | 63% | - | 0 mm | - | - | - |
| 1777615068 | 23.89° C | 63% | - | 0 mm | - | - | - |
| 1777614166 | 23.89° C | 63% | - | 0 mm | - | - | - |
| 1777613266 | 22.78° C | 67% | - | 0 mm | - | - | - |
| 1777612366 | 22.78° C | 65% | - | 0 mm | - | - | - |
* Rain latest hour (hover to see other rain measurements)
** Current wind speed in m/s (hover to see current wind gust speed)